This is the latest recevied weather packets stored in our database for station/object N3WXO-1. If no packets are shown the sender has not sent any weather packets the latest 10 day(s).
| Time | Temp. | Humidity | Pressure | Rain* | Wind** | Luminosity | Snow |
|---|---|---|---|---|---|---|---|
| 1777765234 | 11.11° C | 47% | 1011.9 hPa | 0 mm | - | 7 W/m² | - |
| 1777764931 | 11.67° C | 49% | 1011.9 hPa | 0 mm | - | 11 W/m² | - |
| 1777764625 | 11.67° C | 48% | 1011.9 hPa | 0 mm | - | 14 W/m² | - |
| 1777764322 | 11.67° C | 46% | 1011.8 hPa | 0 mm | - | 16 W/m² | - |
| 1777764018 | 11.67° C | 47% | 1011.9 hPa | 0 mm | - | 19 W/m² | - |
| 1777763719 | 12.22° C | 47% | 1011.9 hPa | 0 mm | - | 23 W/m² | - |
| 1777763436 | 12.22° C | 47% | 1011.8 hPa | 0 mm | - | 28 W/m² | - |
| 1777763132 | 12.22° C | 48% | 1011.8 hPa | 0 mm | - | 35 W/m² | - |
| 1777762827 | 12.22° C | 47% | 1011.7 hPa | 0 mm | - | 44 W/m² | - |
| 1777762524 | 12.22° C | 47% | 1011.7 hPa | 0 mm | - | 51 W/m² | - |
| 1777762218 | 12.22° C | 49% | 1011.8 hPa | 0 mm | - | 60 W/m² | - |
| 1777761935 | 12.22° C | 48% | 1011.7 hPa | 0 mm | - | 44 W/m² | - |
| 1777761637 | 12.22° C | 48% | 1011.7 hPa | 0 mm | - | 35 W/m² | - |
| 1777761334 | 12.22° C | 47% | 1011.7 hPa | 0 mm | - | 37 W/m² | - |
| 1777761029 | 12.22° C | 50% | 1011.7 hPa | 0 mm | - | 26 W/m² | - |
| 1777760725 | 12.22° C | 48% | 1011.7 hPa | 0 mm | - | 33 W/m² | - |
| 1777760422 | 12.22° C | 47% | 1011.5 hPa | 0 mm | - | 39 W/m² | - |
| 1777760118 | 12.22° C | 45% | 1011.4 hPa | 0 mm | - | 37 W/m² | - |
| 1777759834 | 12.78° C | 48% | 1011.5 hPa | 0 mm | - | 40 W/m² | - |
| 1777759535 | 12.78° C | 46% | 1011.5 hPa | 0 mm | - | 49 W/m² | - |
| 1777759231 | 12.78° C | 48% | 1011.5 hPa | 0 mm | - | 56 W/m² | - |
| 1777758927 | 12.78° C | 48% | 1011.6 hPa | 0 mm | - | 67 W/m² | - |
| 1777758623 | 12.78° C | 46% | 1011.6 hPa | 0 mm | - | 81 W/m² | - |
| 1777758320 | 12.78° C | 46% | 1011.7 hPa | 0 mm | - | 107 W/m² | - |
| 1777758037 | 12.78° C | 45% | 1011.6 hPa | 0 mm | - | 65 W/m² | - |
* Rain latest hour (hover to see other rain measurements)
** Current wind speed in m/s (hover to see current wind gust speed)